Time;durP1;ratioP1;P1;durP2;ratioP2;P2;SDS_P1;SDS_P2;PMS_P1;PMS_P2;Temp;Humidity;BMP_temperature;BMP_pressure;BME280_temperature;BME280_humidity;BME280_pressure;Samples;Min_cycle;Max_cycle;Signal;HPM_P1;HPM_P2
2022/01/28 00:01:26;;;;;;;133.53;48.80;;;;;;;-3.52;77.24;95266.06;5013393;28;20196;-92
2022/01/28 00:04:00;;;;;;;133.17;49.37;;;;;;;-3.55;77.82;95244.91;5013109;28;20184;-92
2022/01/28 00:06:26;;;;;;;123.80;43.27;;;;;;;-3.22;77.82;95298.16;5012316;28;20296;-92
2022/01/28 00:08:51;;;;;;;105.73;40.30;;;;;;;-3.31;77.92;95280.81;5013549;28;20259;-91
2022/01/28 00:11:16;;;;;;;133.03;45.17;;;;;;;-3.30;77.00;95275.56;5012593;28;20179;-92
2022/01/28 00:13:43;;;;;;;115.57;44.57;;;;;;;-3.26;76.93;95274.38;5013705;28;20644;-92
2022/01/28 00:17:15;;;;;;;113.83;46.00;;;;;;;-3.06;76.22;95298.63;5013142;28;20191;-92
2022/01/28 00:19:45;;;;;;;111.40;42.47;;;;;;;-3.16;76.45;95272.75;5010231;28;20577;-92
2022/01/28 00:38:32;;;;;;;137.20;55.90;;;;;;;-2.96;76.69;95335.59;5013794;28;20211;-92
2022/01/28 00:40:58;;;;;;;151.53;58.30;;;;;;;-2.94;76.99;95320.81;5012593;28;20211;-92
2022/01/28 00:43:23;;;;;;;143.03;55.50;;;;;;;-3.54;76.39;95224.19;5029031;28;20172;-92
2022/01/28 00:45:49;;;;;;;133.03;53.03;;;;;;;-2.98;76.49;95321.19;5029150;28;20182;-91
2022/01/28 00:48:15;;;;;;;118.67;47.10;;;;;;;-3.29;76.13;95266.91;5012607;28;20168;-91
2022/01/28 00:50:42;;;;;;;112.07;44.47;;;;;;;-3.49;75.98;95229.81;5012682;28;20255;-93
2022/01/28 00:53:11;;;;;;;112.40;43.07;;;;;;;-3.46;75.84;95254.50;5012747;28;20180;-92
2022/01/28 00:55:37;;;;;;;117.93;39.97;;;;;;;-3.50;76.29;95241.06;5029399;28;20264;-92
2022/01/28 00:58:03;;;;;;;111.83;42.37;;;;;;;-3.57;76.21;95223.63;5013041;28;20211;-93
2022/01/28 01:00:29;;;;;;;110.73;41.73;;;;;;;-3.48;76.19;95233.22;5028922;28;20227;-92
2022/01/28 01:02:54;;;;;;;110.47;45.53;;;;;;;-3.46;76.42;95244.22;5029377;28;20226;-92
2022/01/28 01:05:22;;;;;;;137.77;46.03;;;;;;;-3.02;75.65;95305.16;5007824;28;20272;-92
2022/01/28 01:07:47;;;;;;;132.40;46.13;;;;;;;-3.36;75.52;95241.75;5012406;28;20180;-92
2022/01/28 01:10:13;;;;;;;119.10;44.23;;;;;;;-3.55;76.11;95220.00;5012481;28;20623;-92
2022/01/28 01:12:43;;;;;;;106.67;40.27;;;;;;;-3.29;75.42;95255.81;5012517;28;20202;-92
2022/01/28 01:15:11;;;;;;;92.17;36.77;;;;;;;-3.40;76.11;95248.06;5026243;28;20268;-92
2022/01/28 01:17:46;;;;;;;83.20;32.20;;;;;;;-3.62;76.81;95213.66;5012734;28;20183;-92
2022/01/28 01:23:07;;;;;;;78.00;31.17;;;;;;;-3.22;76.27;95287.84;5017560;28;20200;-92
2022/01/28 01:25:44;;;;;;;77.83;32.63;;;;;;;-3.53;75.41;95228.41;5016306;28;20157;-92
2022/01/28 01:28:12;;;;;;;77.80;32.57;;;;;;;-3.32;76.29;95268.88;5016194;28;20168;-92
2022/01/28 01:30:40;;;;;;;94.07;35.43;;;;;;;-3.30;75.98;95272.19;5016113;28;20177;-92
2022/01/28 01:33:07;;;;;;;80.60;30.63;;;;;;;-3.65;76.01;95219.06;5017182;28;20145;-91
2022/01/28 01:35:32;;;;;;;81.67;31.10;;;;;;;-3.60;76.08;95209.25;5015670;28;20157;-93
2022/01/28 01:37:59;;;;;;;70.60;30.60;;;;;;;-3.32;76.56;95250.88;5015746;28;20234;-92
2022/01/28 01:40:30;;;;;;;74.03;31.33;;;;;;;-3.80;77.05;95173.91;5015829;28;20243;-92
2022/01/28 01:43:09;;;;;;;83.87;32.43;;;;;;;-3.55;76.74;95214.06;5015795;28;20168;-92
2022/01/28 01:53:30;;;;;;;79.13;33.43;;;;;;;-3.57;76.25;95206.44;5017202;28;20670;-92
2022/01/28 01:55:56;;;;;;;81.00;35.83;;;;;;;-3.61;75.91;95206.78;5013963;28;20270;-92
2022/01/28 01:58:30;;;;;;;85.43;33.80;;;;;;;-3.71;76.48;95195.53;5016312;28;20161;-92
2022/01/28 02:00:58;;;;;;;85.97;33.13;;;;;;;-3.97;75.49;95156.38;5015878;28;20192;-92
2022/01/28 02:03:23;;;;;;;94.43;33.37;;;;;;;-3.90;75.81;95171.25;5015228;28;20168;-91
2022/01/28 02:05:49;;;;;;;97.97;38.70;;;;;;;-3.78;76.49;95187.47;5016585;28;20248;-92
2022/01/28 02:08:14;;;;;;;104.53;41.27;;;;;;;-3.97;77.32;95152.06;5015534;28;20204;-92
2022/01/28 02:10:39;;;;;;;107.40;40.57;;;;;;;-3.83;77.75;95161.31;5015829;28;20161;-92
2022/01/28 02:13:05;;;;;;;105.70;39.70;;;;;;;-3.96;77.70;95137.44;5014682;28;20195;-92
2022/01/28 02:15:30;;;;;;;91.53;38.60;;;;;;;-3.97;77.31;95154.63;5015030;28;20235;-92
2022/01/28 02:17:59;;;;;;;81.40;34.07;;;;;;;-3.84;77.20;95180.25;5015225;28;20640;-92
2022/01/28 02:20:32;;;;;;;90.13;32.00;;;;;;;-3.54;76.43;95228.53;5015935;28;20251;-92
2022/01/28 02:22:57;;;;;;;74.03;26.07;;;;;;;-3.94;76.31;95163.88;5014268;28;20176;-92
2022/01/28 02:25:29;;;;;;;71.50;28.27;;;;;;;-4.13;76.04;95130.19;5014306;28;20271;-91
2022/01/28 02:27:57;;;;;;;65.13;29.77;;;;;;;-3.58;75.97;95215.09;5014365;28;20215;-91
2022/01/28 02:30:23;;;;;;;60.60;30.40;;;;;;;-4.09;76.49;95135.00;5013291;28;20240;-92
2022/01/28 02:32:50;;;;;;;68.40;27.50;;;;;;;-3.91;76.62;95166.22;5014692;28;20644;-91
2022/01/28 02:35:16;;;;;;;82.37;28.93;;;;;;;-3.66;76.86;95211.47;5014984;28;20176;-91
2022/01/28 02:37:41;;;;;;;72.40;31.40;;;;;;;-4.16;76.36;95140.72;5014773;28;20180;-92
2022/01/28 02:40:07;;;;;;;72.23;30.93;;;;;;;-4.20;76.36;95129.84;5014794;28;20171;-93
2022/01/28 02:45:24;;;;;;;76.87;34.03;;;;;;;-3.88;76.55;95171.09;5017200;28;20160;-93
2022/01/28 02:47:55;;;;;;;89.07;37.90;;;;;;;-4.17;76.99;95132.19;5014982;28;20176;-93
2022/01/28 02:50:20;;;;;;;80.90;35.67;;;;;;;-3.96;77.54;95160.59;5014663;28;20171;-92
2022/01/28 02:53:01;;;;;;;72.17;33.17;;;;;;;-3.81;76.89;95182.59;5014904;28;20165;-92
2022/01/28 02:55:26;;;;;;;69.87;29.97;;;;;;;-4.17;76.66;95139.91;5014633;28;20171;-91
2022/01/28 02:58:03;;;;;;;58.87;28.03;;;;;;;-3.96;76.97;95181.97;5014850;28;20708;-92
2022/01/28 03:00:29;;;;;;;57.13;26.87;;;;;;;-4.28;77.04;95139.88;5015663;28;20161;-92
2022/01/28 03:02:54;;;;;;;63.13;26.17;;;;;;;-4.01;77.03;95180.69;5015320;28;20191;-91
2022/01/28 03:05:34;;;;;;;53.07;25.43;;;;;;;-4.20;77.04;95130.66;5014407;28;20164;-93
2022/01/28 03:08:02;;;;;;;55.93;24.13;;;;;;;-4.02;76.12;95137.94;5014493;28;20192;-92
2022/01/28 03:10:40;;;;;;;63.07;26.90;;;;;;;-3.98;75.84;95140.13;5015502;28;20149;-92
2022/01/28 03:15:36;;;;;;;58.90;24.50;;;;;;;-3.87;76.46;95141.91;5015944;28;20184;-93
2022/01/28 03:18:13;;;;;;;75.63;30.00;;;;;;;-3.58;76.57;95173.94;5013659;28;20169;-92
2022/01/28 03:20:55;;;;;;;90.00;34.80;;;;;;;-3.95;76.86;95116.78;5013796;28;20198;-91
2022/01/28 03:23:20;;;;;;;68.87;29.10;;;;;;;-3.94;75.81;95117.59;5014951;28;20149;-92
2022/01/28 03:25:47;;;;;;;70.07;31.30;;;;;;;-3.78;76.41;95135.22;5013462;28;20548;-92
2022/01/28 03:28:15;;;;;;;83.83;36.20;;;;;;;-3.72;76.44;95125.31;5013621;28;20289;-92
2022/01/28 03:30:41;;;;;;;77.67;31.80;;;;;;;-3.94;75.55;95090.13;5013885;28;20192;-92
2022/01/28 03:33:06;;;;;;;70.47;31.00;;;;;;;-3.72;75.76;95111.66;5014930;28;20552;-92
2022/01/28 03:35:35;;;;;;;78.77;34.90;;;;;;;-4.22;75.90;95049.47;5013888;28;20558;-92
2022/01/28 03:38:03;;;;;;;62.87;31.23;;;;;;;-4.13;76.22;95079.63;5014010;28;20169;-93
2022/01/28 03:40:38;;;;;;;71.67;29.97;;;;;;;-4.02;75.81;95102.75;5013775;28;20184;-91
2022/01/28 03:43:05;;;;;;;70.93;28.30;;;;;;;-3.69;75.32;95158.50;5013335;28;20195;-92
2022/01/28 03:45:31;;;;;;;84.07;34.93;;;;;;;-3.73;75.92;95154.53;5013479;28;20169;-92
2022/01/28 03:47:56;;;;;;;77.60;33.43;;;;;;;-4.21;75.81;95058.81;5014613;28;20179;-92
2022/01/28 03:50:22;;;;;;;78.57;32.13;;;;;;;-4.27;75.77;95051.59;5013134;28;20247;-92
2022/01/28 03:52:47;;;;;;;79.67;31.97;;;;;;;-4.09;75.33;95093.88;5013427;28;20168;-93
2022/01/28 03:55:13;;;;;;;78.60;31.90;;;;;;;-4.36;75.74;95045.41;5014356;28;20157;-92
2022/01/28 03:57:38;;;;;;;78.20;32.37;;;;;;;-4.06;75.19;95088.50;5016207;28;20176;-92
2022/01/28 04:00:05;;;;;;;68.70;31.17;;;;;;;-4.19;75.07;95080.91;5011822;28;20263;-92
2022/01/28 04:02:34;;;;;;;75.40;33.77;;;;;;;-4.46;75.33;95041.06;5006560;28;20268;-92
2022/01/28 04:12:55;;;;;;;64.23;29.47;;;;;;;-4.47;75.42;95029.16;5014338;28;20242;-91
2022/01/28 04:18:04;;;;;;;85.60;34.07;;;;;;;-4.46;75.59;95048.78;5013702;28;20180;-89
2022/01/28 04:20:30;;;;;;;99.53;43.87;;;;;;;-4.59;76.07;95034.31;5012344;28;20168;-90
2022/01/28 04:22:57;;;;;;;86.53;38.13;;;;;;;-4.22;75.94;95101.69;5013831;28;20177;-89
2022/01/28 04:25:23;;;;;;;109.03;39.47;;;;;;;-4.27;75.77;95101.22;5010839;28;20555;-89
2022/01/28 04:27:48;;;;;;;98.23;40.23;;;;;;;-4.52;75.44;95060.34;5012253;28;20184;-89
2022/01/28 04:30:14;;;;;;;110.40;47.67;;;;;;;-4.58;76.46;95060.78;5015124;28;20666;-90
2022/01/28 04:32:39;;;;;;;129.70;50.73;;;;;;;-4.38;77.20;95105.53;5012659;28;20168;-91
2022/01/28 04:35:06;;;;;;;106.87;46.27;;;;;;;-4.51;77.66;95074.00;5012877;28;20176;-91
2022/01/28 04:37:43;;;;;;;107.50;43.57;;;;;;;-4.42;77.13;95083.59;5012560;28;20169;-91
2022/01/28 04:40:22;;;;;;;91.50;42.40;;;;;;;-4.26;77.11;95099.47;5012467;28;20183;-90
2022/01/28 04:45:29;;;;;;;79.17;36.00;;;;;;;-4.28;75.77;95086.75;5013316;28;20191;-90
2022/01/28 05:13:56;;;;;;;85.17;35.93;;;;;;;-4.48;75.88;95089.97;5017821;28;20258;-91
2022/01/28 05:27:06;;;;;;;93.63;36.37;;;;;;;-4.68;75.63;95090.66;4982732;28;20223;-91
2022/01/28 05:29:31;;;;;;;92.87;39.40;;;;;;;-4.56;75.95;95110.28;5016013;28;20180;-90
2022/01/28 05:31:57;;;;;;;100.17;40.80;;;;;;;-4.53;75.80;95130.59;5014935;28;20238;-90
2022/01/28 05:34:28;;;;;;;84.47;34.83;;;;;;;-4.58;76.42;95117.25;5015625;28;20184;-89
2022/01/28 05:36:55;;;;;;;83.93;34.93;;;;;;;-4.30;76.17;95162.28;5013648;28;20168;-90
2022/01/28 05:39:21;;;;;;;81.60;34.70;;;;;;;-4.30;76.04;95160.53;5016375;28;20169;-90
2022/01/28 05:41:46;;;;;;;81.93;34.23;;;;;;;-4.59;75.86;95111.34;5015390;28;20701;-90
2022/01/28 05:44:12;;;;;;;91.63;33.97;;;;;;;-4.60;76.04;95111.44;5014959;28;20188;-88
2022/01/28 05:46:37;;;;;;;82.87;35.07;;;;;;;-4.29;75.74;95151.09;5014561;28;20187;-89
2022/01/28 05:49:03;;;;;;;93.87;35.73;;;;;;;-4.38;74.84;95120.94;5013951;28;20176;-89
2022/01/28 05:51:29;;;;;;;88.00;35.87;;;;;;;-4.43;75.12;95113.59;5013941;28;20175;-88
2022/01/28 05:53:57;;;;;;;73.77;31.50;;;;;;;-4.52;75.38;95080.88;5013928;28;20179;-90
2022/01/28 05:56:27;;;;;;;90.47;33.03;;;;;;;-4.49;75.30;95100.34;5013438;28;20181;-89
2022/01/28 05:58:53;;;;;;;64.37;28.17;;;;;;;-4.02;75.06;95158.47;5011406;28;20192;-89
2022/01/28 06:01:19;;;;;;;102.87;47.47;;;;;;;-4.64;75.93;95089.47;5013856;28;20196;-88
2022/01/28 06:03:44;;;;;;;71.47;30.43;;;;;;;-4.74;75.52;95063.66;5014536;28;20184;-87
2022/01/28 06:06:21;;;;;;;86.27;34.17;;;;;;;-4.48;75.32;95102.00;5014721;28;20176;-88
2022/01/28 06:08:48;;;;;;;84.70;35.70;;;;;;;-4.46;75.57;95103.53;5011287;28;20184;-88
2022/01/28 06:11:15;;;;;;;80.30;38.57;;;;;;;-4.12;75.48;95155.78;5015178;28;20176;-90
2022/01/28 06:13:42;;;;;;;96.60;42.43;;;;;;;-4.11;nan;95159.16;5013317;28;20635;-90
2022/01/28 06:16:09;;;;;;;126.20;48.07;;;;;;;-4.44;75.60;95090.56;5013987;28;20176;-89
2022/01/28 06:18:35;;;;;;;103.40;43.20;;;;;;;-3.92;74.77;95178.25;5014893;28;20184;-88
2022/01/28 06:21:01;;;;;;;91.27;42.10;;;;;;;-4.03;74.18;95138.84;5013184;28;20203;-88
2022/01/28 06:23:27;;;;;;;113.07;49.23;;;;;;;-3.99;74.58;95156.50;5014217;28;20254;-88
2022/01/28 06:25:52;;;;;;;122.70;49.67;;;;;;;-4.09;75.74;95126.47;5013694;28;20184;-89
2022/01/28 06:28:18;;;;;;;219.70;90.90;;;;;;;-3.84;75.96;95114.22;5013703;28;20242;-90
2022/01/28 06:30:43;;;;;;;133.70;59.40;;;;;;;-2.92;75.41;95141.28;5013900;28;20180;-89
2022/01/28 06:33:13;;;;;;;149.83;63.90;;;;;;;-1.76;70.43;95147.25;5013841;28;20203;-89
2022/01/28 06:35:42;;;;;;;247.13;93.37;;;;;;;0.27;65.45;95200.81;5012477;28;20187;-89
2022/01/28 06:38:08;;;;;;;162.37;71.53;;;;;;;1.49;59.07;95144.31;5013213;28;20182;-89
2022/01/28 06:40:34;;;;;;;118.47;50.33;;;;;;;2.71;53.91;95126.13;5013117;28;20263;-89
2022/01/28 06:42:59;;;;;;;102.77;41.33;;;;;;;4.05;50.32;95170.19;5012951;28;20187;-87
2022/01/28 06:45:25;;;;;;;99.53;42.53;;;;;;;4.06;49.08;95162.22;5012943;28;20235;-91
2022/01/28 06:47:50;;;;;;;100.20;40.67;;;;;;;3.70;50.09;95174.72;5012978;28;20646;-90
2022/01/28 06:50:16;;;;;;;84.03;38.73;;;;;;;3.42;51.21;95158.56;5014583;28;20176;-89
2022/01/28 06:52:42;;;;;;;85.27;37.27;;;;;;;3.52;50.70;95170.63;5013308;28;20192;-91
2022/01/28 06:55:12;;;;;;;95.00;42.30;;;;;;;3.76;50.33;95171.47;5013273;28;20289;-91
2022/01/28 06:57:38;;;;;;;61.47;30.30;;;;;;;4.40;49.74;95200.28;5013199;28;20262;-92
2022/01/28 07:00:06;;;;;;;77.70;36.53;;;;;;;4.37;48.95;95157.13;5013397;28;20192;-91
2022/01/28 07:02:31;;;;;;;80.33;38.97;;;;;;;5.02;48.30;95179.59;5010150;28;20594;-90
2022/01/28 07:04:57;;;;;;;81.87;38.37;;;;;;;5.92;46.26;95212.97;5013900;28;20172;-90
2022/01/28 07:07:24;;;;;;;73.83;36.50;;;;;;;6.56;44.03;95147.28;5013074;28;20176;-90
2022/01/28 07:09:51;;;;;;;93.40;43.17;;;;;;;8.01;41.63;95225.88;5017850;28;20176;-92
2022/01/28 07:12:17;;;;;;;81.13;38.30;;;;;;;8.31;40.95;95227.41;5014530;28;20179;-90
2022/01/28 07:14:45;;;;;;;60.40;30.37;;;;;;;8.46;40.22;95164.38;5020556;28;20192;-91
2022/01/28 07:17:11;;;;;;;76.00;33.93;;;;;;;9.15;39.03;95184.63;5012524;28;20176;-92
2022/01/28 07:19:37;;;;;;;65.90;30.93;;;;;;;9.75;37.41;95147.91;5013202;28;20705;-92
2022/01/28 07:22:03;;;;;;;50.97;27.90;;;;;;;11.22;35.55;95213.59;5014207;28;20316;-91
2022/01/28 07:24:29;;;;;;;63.37;31.30;;;;;;;11.21;34.69;95144.28;5012936;28;20819;-93
2022/01/28 07:26:54;;;;;;;57.27;25.43;;;;;;;10.54;35.03;95165.66;5012995;28;20227;-92
2022/01/28 07:29:22;;;;;;;48.63;25.70;;;;;;;8.93;36.89;95145.31;5015678;28;20211;-93
2022/01/28 07:31:47;;;;;;;47.43;21.80;;;;;;;7.56;39.92;95137.88;5011726;28;20282;-91
2022/01/28 07:34:13;;;;;;;55.03;24.67;;;;;;;8.13;40.34;95152.78;5030567;28;20172;-93
2022/01/28 07:36:39;;;;;;;50.43;28.77;;;;;;;10.15;37.42;95145.34;5013233;28;20188;-92
2022/01/28 07:39:07;;;;;;;60.87;27.77;;;;;;;12.80;33.27;95192.50;5013851;28;20169;-93
2022/01/28 07:41:33;;;;;;;56.20;29.53;;;;;;;14.56;30.13;95155.47;5013449;28;20196;-92
2022/01/28 07:43:59;;;;;;;58.60;30.17;;;;;;;15.86;27.89;95152.53;5009964;28;20176;-94
2022/01/28 07:46:24;;;;;;;51.87;28.57;;;;;;;17.59;25.63;95223.53;5029083;28;20654;-92
2022/01/28 07:48:50;;;;;;;55.60;24.65;;;;;;;18.24;24.62;95220.13;5013824;28;20246;-92
2022/01/28 07:51:16;;;;;;;46.85;24.67;;;;;;;18.28;23.81;95165.25;5012968;28;20164;-94
2022/01/28 07:53:42;;;;;;;42.13;24.08;;;;;;;17.76;23.39;95172.09;5022091;28;20188;-92
2022/01/28 07:56:07;;;;;;;46.28;24.60;;;;;;;17.35;24.25;95150.25;5022178;28;20679;-92
2022/01/28 07:58:33;;;;;;;51.30;25.27;;;;;;;17.71;23.67;95144.38;5012906;28;20263;-91
2022/01/28 08:00:58;;;;;;;49.70;25.67;;;;;;;17.79;24.04;95142.31;5028523;28;20203;-92
2022/01/28 08:03:24;;;;;;;44.63;27.42;;;;;;;17.40;23.93;95186.75;5013149;28;20642;-92
2022/01/28 08:05:49;;;;;;;57.88;27.73;;;;;;;16.30;25.13;95195.31;5012527;28;20176;-93
2022/01/28 08:08:18;;;;;;;56.83;24.97;;;;;;;15.41;26.20;95153.16;5013185;28;20177;-93
2022/01/28 08:10:44;;;;;;;57.13;24.53;;;;;;;15.03;26.86;95184.69;5012250;28;20181;-88
2022/01/28 08:13:09;;;;;;;54.97;24.87;;;;;;;14.63;27.76;95172.06;5008204;28;20187;-92
2022/01/28 08:15:35;;;;;;;36.57;17.53;;;;;;;13.66;28.34;95119.47;5012901;28;20180;-92
2022/01/28 08:18:01;;;;;;;41.67;18.73;;;;;;;12.57;29.99;95138.66;5012362;28;20703;-91
2022/01/28 08:20:27;;;;;;;42.13;17.57;;;;;;;12.08;31.20;95158.72;5018955;28;20172;-87
2022/01/28 08:22:57;;;;;;;37.87;17.87;;;;;;;11.41;32.36;95130.22;5011426;28;20612;-88
2022/01/28 08:25:24;;;;;;;36.30;17.63;;;;;;;11.45;32.41;95132.22;5012435;28;20173;-93
2022/01/28 08:27:50;;;;;;;33.77;16.27;;;;;;;10.85;32.93;95110.50;5013932;28;20177;-91
2022/01/28 08:30:17;;;;;;;33.10;14.77;;;;;;;10.82;33.17;95141.72;5011355;28;20279;-87
2022/01/28 08:32:43;;;;;;;30.47;14.50;;;;;;;10.25;33.61;95134.44;5011558;28;20567;-92
2022/01/28 08:35:09;;;;;;;35.03;16.73;;;;;;;9.86;35.03;95188.56;5028487;28;20259;-93
2022/01/28 08:37:35;;;;;;;33.93;16.13;;;;;;;8.67;36.61;95130.22;5012103;28;20176;-92
2022/01/28 08:40:01;;;;;;;37.10;17.73;;;;;;;8.97;38.21;95182.50;5011128;28;20577;-91
2022/01/28 08:42:27;;;;;;;42.13;19.47;;;;;;;7.96;38.04;95063.06;5012063;28;20192;-92
2022/01/28 08:44:52;;;;;;;42.73;20.63;;;;;;;7.92;37.99;95091.50;5010203;28;20188;-91
2022/01/28 08:47:18;;;;;;;39.73;19.40;;;;;;;7.52;39.21;95115.69;5010893;28;20169;-90
2022/01/28 08:49:43;;;;;;;39.10;20.37;;;;;;;7.31;40.41;95129.56;5010865;28;20668;-90
2022/01/28 08:52:09;;;;;;;43.27;19.00;;;;;;;7.25;40.94;95140.75;5010748;28;20640;-88
2022/01/28 08:54:34;;;;;;;43.50;18.80;;;;;;;7.52;41.29;95136.66;5010277;28;20191;-86
2022/01/28 08:56:59;;;;;;;39.40;20.47;;;;;;;7.76;40.30;95144.16;5011560;28;20176;-89
2022/01/28 08:59:25;;;;;;;51.57;25.17;;;;;;;7.95;39.85;95132.25;5011960;28;20176;-91
2022/01/28 09:01:50;;;;;;;55.90;28.50;;;;;;;7.64;39.96;95118.63;5010661;28;21121;-91
2022/01/28 09:04:16;;;;;;;53.63;26.40;;;;;;;7.87;39.52;95141.03;5011412;28;20172;-90
2022/01/28 09:06:41;;;;;;;55.60;27.70;;;;;;;8.07;40.30;95143.03;5010851;28;20184;-91
2022/01/28 09:09:07;;;;;;;57.57;29.13;;;;;;;8.57;40.72;95215.50;5010407;28;20188;-88
2022/01/28 09:14:16;;;;;;;57.37;29.93;;;;;;;7.88;39.79;95139.22;5010948;28;20275;-91
2022/01/28 09:16:45;;;;;;;61.73;28.67;;;;;;;7.63;40.08;95157.09;5010888;28;20311;-89
2022/01/28 09:19:10;;;;;;;58.57;29.00;;;;;;;7.27;40.54;95141.38;5010761;28;20215;-89
2022/01/28 09:21:35;;;;;;;54.20;28.57;;;;;;;7.19;40.85;95154.56;5010417;28;20279;-88
2022/01/28 09:24:01;;;;;;;62.87;27.27;;;;;;;6.97;41.73;95152.88;5009874;28;20285;-88
2022/01/28 09:26:26;;;;;;;61.03;29.03;;;;;;;6.55;42.30;95130.78;5026768;28;20214;-88
2022/01/28 09:28:52;;;;;;;61.67;26.90;;;;;;;6.32;42.92;95109.91;5010274;28;20173;-90
2022/01/28 09:31:17;;;;;;;57.43;27.53;;;;;;;6.34;43.33;95138.47;5024216;28;20165;-91
2022/01/28 09:33:43;;;;;;;52.97;27.50;;;;;;;6.40;43.56;95140.38;5010226;28;20644;-90
2022/01/28 09:36:09;;;;;;;64.10;29.47;;;;;;;6.55;43.58;95163.97;5010416;28;20165;-91
2022/01/28 09:38:35;;;;;;;72.20;29.53;;;;;;;6.34;44.07;95147.13;5011077;28;20616;-92
2022/01/28 09:41:03;;;;;;;53.13;25.80;;;;;;;6.13;44.35;95154.03;5014315;28;20259;-92
2022/01/28 09:43:28;;;;;;;52.97;22.53;;;;;;;5.97;45.07;95140.09;5014701;28;20663;-91
2022/01/28 09:45:55;;;;;;;41.23;19.70;;;;;;;6.35;45.21;95216.75;5013878;28;20168;-90
2022/01/28 09:48:20;;;;;;;41.83;19.67;;;;;;;5.99;44.43;95166.88;5014435;28;20177;-92
2022/01/28 09:50:46;;;;;;;43.40;19.23;;;;;;;6.09;45.46;95210.25;5014745;28;20180;-93
2022/01/28 09:53:14;;;;;;;47.53;20.90;;;;;;;5.64;46.55;95152.53;5014459;28;20679;-92
2022/01/28 09:55:40;;;;;;;55.37;23.17;;;;;;;5.75;46.98;95174.84;5014568;28;20188;-91
2022/01/28 09:58:05;;;;;;;52.80;24.57;;;;;;;5.77;46.49;95214.66;5014580;28;20706;-90
2022/01/28 10:00:33;;;;;;;54.93;24.17;;;;;;;5.60;47.07;95211.34;5014441;28;20683;-93
2022/01/28 10:03:11;;;;;;;60.30;25.37;;;;;;;5.53;47.86;95213.00;5013615;28;20675;-92
2022/01/28 10:05:50;;;;;;;53.93;25.93;;;;;;;5.43;48.73;95209.78;5011366;28;20185;-91
2022/01/28 10:08:27;;;;;;;59.17;25.47;;;;;;;5.25;49.21;95178.72;5014977;28;20259;-91
2022/01/28 10:11:04;;;;;;;57.47;25.53;;;;;;;5.51;48.93;95207.13;5012542;28;20172;-91
2022/01/28 10:13:46;;;;;;;57.77;26.47;;;;;;;5.47;48.88;95205.84;5013301;28;20188;-87
2022/01/28 10:16:13;;;;;;;57.17;25.60;;;;;;;5.30;48.88;95179.00;5014007;28;20564;-90
2022/01/28 10:18:53;;;;;;;59.23;24.00;;;;;;;5.51;48.96;95211.53;5014184;28;20604;-91
2022/01/28 10:21:29;;;;;;;59.30;24.63;;;;;;;5.47;49.39;95216.28;5012394;28;20215;-89
2022/01/28 10:24:04;;;;;;;55.97;24.40;;;;;;;5.08;49.70;95158.06;5013150;28;20231;-88
2022/01/28 10:26:37;;;;;;;50.77;24.03;;;;;;;5.40;49.30;95222.34;5010518;28;20672;-90
2022/01/28 10:29:07;;;;;;;65.57;26.40;;;;;;;4.78;50.30;95149.22;5008239;28;20185;-89
2022/01/28 10:31:38;;;;;;;51.33;25.07;;;;;;;4.81;50.56;95157.53;5008772;28;20268;-88
2022/01/28 10:34:21;;;;;;;56.33;26.70;;;;;;;4.96;51.12;95180.28;5011863;28;20652;-90
2022/01/28 10:36:48;;;;;;;58.73;26.63;;;;;;;5.08;51.29;95223.31;5011169;28;20271;-90
2022/01/28 10:39:22;;;;;;;53.57;25.57;;;;;;;4.53;51.37;95143.25;5029552;28;20303;-92
2022/01/28 10:41:58;;;;;;;60.23;26.47;;;;;;;4.50;51.57;95149.59;5000297;28;20242;-90
2022/01/28 10:44:26;;;;;;;66.80;27.07;;;;;;;4.90;51.48;95216.50;5005364;28;20937;-91
2022/01/28 10:46:58;;;;;;;54.10;26.10;;;;;;;4.35;51.94;95138.22;5010558;28;20176;-91
2022/01/28 10:49:28;;;;;;;52.77;26.57;;;;;;;4.34;51.93;95134.00;5021170;28;20172;-93
2022/01/28 10:51:54;;;;;;;59.57;25.90;;;;;;;4.59;51.85;95163.44;5012346;28;20204;-92
2022/01/28 10:54:22;;;;;;;52.63;24.93;;;;;;;4.48;52.20;95155.97;5013094;28;20180;-92
2022/01/28 10:56:58;;;;;;;65.67;27.07;;;;;;;4.92;52.67;95221.56;5013435;28;20177;-93
2022/01/28 10:59:28;;;;;;;57.40;25.77;;;;;;;4.50;52.16;95154.00;5011713;28;20168;-92
2022/01/28 11:01:54;;;;;;;65.67;28.83;;;;;;;4.98;53.40;95212.25;5013816;28;20230;-92
2022/01/28 11:04:21;;;;;;;56.97;27.20;;;;;;;4.92;52.41;95208.50;5011950;28;20181;-92
2022/01/28 11:06:48;;;;;;;61.07;25.57;;;;;;;4.86;53.50;95209.97;5013971;28;20176;-90
2022/01/28 11:09:15;;;;;;;67.43;27.67;;;;;;;4.54;53.34;95161.34;5014402;28;20230;-91
2022/01/28 11:11:42;;;;;;;58.53;26.33;;;;;;;4.52;52.81;95149.44;5013619;28;20181;-91
2022/01/28 11:14:08;;;;;;;57.60;27.13;;;;;;;4.30;52.52;95090.22;5012773;28;20192;-90
2022/01/28 11:16:34;;;;;;;64.97;27.47;;;;;;;4.39;53.60;95104.84;5012498;28;20676;-90
2022/01/28 11:19:00;;;;;;;75.87;33.20;;;;;;;4.79;53.49;95143.00;5012843;28;20208;-90
2022/01/28 11:22:09;;;;;;;77.33;34.00;;;;;;;5.21;53.51;95192.25;5012587;28;20208;-91
2022/01/28 11:24:58;;;;;;;81.90;38.10;;;;;;;5.05;54.08;95161.00;5012392;28;20740;-91
2022/01/28 11:27:37;;;;;;;98.07;39.87;;;;;;;5.37;53.59;95192.19;5012794;28;20200;-91
2022/01/28 11:30:20;;;;;;;92.23;40.20;;;;;;;5.49;53.71;95200.47;5012690;28;20262;-90
2022/01/28 11:33:02;;;;;;;85.23;37.87;;;;;;;5.65;53.71;95198.56;5012066;28;20176;-92
2022/01/28 11:35:32;;;;;;;78.00;34.37;;;;;;;5.51;54.35;95159.34;5019219;28;20180;-91
2022/01/28 11:38:03;;;;;;;53.30;22.00;;;;;;;5.50;54.53;95136.81;5012356;28;20208;-92
2022/01/28 11:40:42;;;;;;;19.60;9.03;;;;;;;6.01;56.72;95187.59;5012339;28;20180;-92
2022/01/28 11:43:24;;;;;;;16.30;8.00;;;;;;;5.90;56.75;95154.84;5013295;28;20266;-92
2022/01/28 11:46:07;;;;;;;15.93;9.67;;;;;;;6.21;57.48;95180.91;5005024;28;20181;-91
2022/01/28 11:48:51;;;;;;;13.67;8.00;;;;;;;6.24;57.68;95182.34;5025194;28;20184;-91
2022/01/28 11:51:41;;;;;;;16.13;8.27;;;;;;;6.15;57.72;95154.66;5028262;28;20183;-92
2022/01/28 11:54:13;;;;;;;16.70;8.40;;;;;;;6.32;57.91;95177.06;5012910;28;20671;-91
2022/01/28 11:56:41;;;;;;;17.27;8.50;;;;;;;6.09;58.25;95144.91;5012399;28;20180;-91
2022/01/28 11:59:08;;;;;;;23.37;12.47;;;;;;;6.35;58.59;95174.91;5028638;28;20265;-90
2022/01/28 12:01:39;;;;;;;12.63;7.40;;;;;;;6.37;58.82;95172.94;5011855;28;20227;-90
2022/01/28 12:04:31;;;;;;;14.93;7.67;;;;;;;6.44;58.88;95167.81;5013106;28;20175;-92
2022/01/28 12:07:15;;;;;;;21.57;10.63;;;;;;;6.18;58.70;95126.38;5018128;28;20180;-91
2022/01/28 12:09:43;;;;;;;23.57;9.57;;;;;;;6.20;58.48;95108.72;5013176;28;20168;-93
2022/01/28 12:12:10;;;;;;;11.70;6.57;;;;;;;6.37;58.91;95135.53;5012102;28;20176;-91
2022/01/28 12:14:53;;;;;;;17.87;8.00;;;;;;;6.49;59.39;95149.00;5019477;28;20185;-91
2022/01/28 12:17:34;;;;;;;19.10;9.87;;;;;;;6.52;58.76;95149.41;5005611;28;20226;-92
2022/01/28 12:20:15;;;;;;;19.47;10.57;;;;;;;6.38;59.25;95121.47;5013206;28;20238;-91
2022/01/28 12:22:59;;;;;;;23.27;11.50;;;;;;;6.72;59.02;95152.34;5004206;28;20255;-92
2022/01/28 12:25:36;;;;;;;25.33;11.40;;;;;;;6.77;58.65;95153.41;5008932;28;20173;-92
2022/01/28 12:28:32;;;;;;;25.87;11.90;;;;;;;6.95;58.41;95150.44;5010250;28;20241;-92
2022/01/28 12:31:04;;;;;;;25.90;11.63;;;;;;;6.71;57.91;95096.59;5022123;28;20675;-91
2022/01/28 12:33:36;;;;;;;25.83;13.47;;;;;;;6.87;58.28;95095.59;5012782;28;20177;-91
2022/01/28 12:36:16;;;;;;;31.50;15.70;;;;;;;7.36;56.36;95148.13;5011903;28;20172;-90
2022/01/28 12:42:05;;;;;;;17.07;8.37;;;;;;;7.46;55.26;95153.91;4989907;28;20246;-89
2022/01/28 12:44:32;;;;;;;14.30;7.03;;;;;;;7.25;54.35;95119.81;5010791;28;20177;-89
2022/01/28 12:47:01;;;;;;;12.10;5.70;;;;;;;6.96;54.31;95085.84;5012041;28;20637;-89
2022/01/28 12:49:32;;;;;;;14.17;8.00;;;;;;;7.10;54.41;95098.88;5011969;28;20640;-89
2022/01/28 12:52:01;;;;;;;15.33;6.27;;;;;;;6.93;54.53;95094.84;5010795;28;20176;-89
2022/01/28 12:54:44;;;;;;;12.43;6.50;;;;;;;6.88;54.95;95089.38;5012748;28;20180;-89
2022/01/28 12:57:11;;;;;;;8.17;4.53;;;;;;;6.77;55.19;95089.81;5011264;28;20172;-89